Time;durP1;ratioP1;P1;durP2;ratioP2;P2;SDS_P1;SDS_P2;PMS_P1;PMS_P2;Temp;Humidity;BMP_temperature;BMP_pressure;BME280_temperature;BME280_humidity;BME280_pressure;Samples;Min_cycle;Max_cycle;Signal;HPM_P1;HPM_P2
2022/04/04 03:02:53;;;;;;;1.10;1.10;;;1.00;73.60;;;;;;4872031;27;20842;-71
2022/04/04 03:05:20;;;;;;;1.10;1.00;;;1.00;73.60;;;;;;4899453;29;20874;-72
2022/04/04 03:07:47;;;;;;;1.27;1.17;;;1.10;73.70;;;;;;4899239;29;20477;-72
2022/04/04 03:10:14;;;;;;;1.10;1.10;;;1.10;73.40;;;;;;4898936;29;20835;-72
2022/04/04 03:12:42;;;;;;;1.00;1.00;;;1.10;73.40;;;;;;4916839;29;20642;-71
2022/04/04 03:15:11;;;;;;;1.20;1.10;;;1.10;73.20;;;;;;4918955;29;20539;-71
2022/04/04 03:17:39;;;;;;;1.10;1.10;;;1.10;73.30;;;;;;4917633;29;20461;-71
2022/04/04 03:20:09;;;;;;;1.00;1.00;;;1.10;73.30;;;;;;4917345;29;20933;-71
2022/04/04 03:22:36;;;;;;;1.00;1.00;;;1.10;72.90;;;;;;4917546;29;20500;-72
2022/04/04 03:25:02;;;;;;;1.50;1.40;;;1.10;73.00;;;;;;4917715;29;20603;-71
2022/04/04 03:27:29;;;;;;;1.10;1.00;;;1.10;73.20;;;;;;4917626;29;20512;-71
2022/04/04 03:29:56;;;;;;;1.20;1.10;;;1.00;73.50;;;;;;4917585;29;20478;-71
2022/04/04 03:32:23;;;;;;;1.00;1.00;;;1.00;73.50;;;;;;4917333;29;20992;-71
2022/04/04 03:34:50;;;;;;;1.10;1.10;;;1.00;73.50;;;;;;4917172;29;20516;-72
2022/04/04 03:37:18;;;;;;;1.20;1.10;;;1.00;73.30;;;;;;4917287;29;20969;-71
2022/04/04 03:39:45;;;;;;;1.10;1.10;;;1.00;73.30;;;;;;4917304;29;20528;-72
2022/04/04 03:42:11;;;;;;;1.10;1.10;;;0.90;73.50;;;;;;4917297;29;20476;-71
2022/04/04 03:44:38;;;;;;;1.40;1.30;;;0.80;73.70;;;;;;4917446;29;20449;-71
2022/04/04 03:47:07;;;;;;;0.90;0.90;;;0.60;73.90;;;;;;4917351;29;20460;-72
2022/04/04 03:49:33;;;;;;;1.33;1.23;;;0.60;74.10;;;;;;4917263;29;20453;-71
2022/04/04 03:52:00;;;;;;;0.90;0.90;;;0.70;74.10;;;;;;4917106;29;20548;-71
2022/04/04 03:54:28;;;;;;;1.50;1.40;;;0.60;74.00;;;;;;4917175;29;20472;-70
2022/04/04 03:56:55;;;;;;;1.00;1.00;;;0.50;74.30;;;;;;4917200;29;20508;-71
2022/04/04 03:59:21;;;;;;;1.10;1.10;;;0.40;74.50;;;;;;4916826;29;21007;-72
2022/04/04 04:01:48;;;;;;;1.00;1.00;;;0.40;74.20;;;;;;4916746;29;21016;-72
2022/04/04 04:04:15;;;;;;;1.23;1.17;;;0.40;74.30;;;;;;4917018;29;20455;-71
2022/04/04 04:06:41;;;;;;;1.13;1.10;;;0.40;74.40;;;;;;4916688;29;20876;-71
2022/04/04 04:09:08;;;;;;;1.40;1.30;;;0.40;74.20;;;;;;4916961;29;20452;-72
2022/04/04 04:11:37;;;;;;;0.90;0.90;;;0.40;74.10;;;;;;4916836;29;20900;-72
2022/04/04 04:14:03;;;;;;;1.20;1.10;;;0.40;74.10;;;;;;4917086;29;20492;-72
2022/04/04 04:16:30;;;;;;;1.30;1.20;;;0.30;74.20;;;;;;4917013;29;20461;-71
2022/04/04 04:18:57;;;;;;;1.10;1.10;;;0.30;74.20;;;;;;4916853;29;20452;-72
2022/04/04 04:21:24;;;;;;;0.90;0.90;;;0.30;74.10;;;;;;4917079;29;20520;-72
2022/04/04 04:23:51;;;;;;;1.00;1.00;;;0.30;74.20;;;;;;4916719;29;20555;-72
2022/04/04 04:26:18;;;;;;;1.07;1.07;;;0.30;74.10;;;;;;4916659;29;20516;-72
2022/04/04 04:28:47;;;;;;;1.40;1.30;;;0.30;74.40;;;;;;4916158;29;20452;-72
2022/04/04 04:31:17;;;;;;;0.97;0.97;;;0.30;74.30;;;;;;4916562;29;20473;-72
2022/04/04 04:33:43;;;;;;;1.20;1.10;;;0.30;74.10;;;;;;4917459;29;20507;-72
2022/04/04 04:36:11;;;;;;;0.90;0.90;;;0.40;74.00;;;;;;4916595;29;20457;-71
2022/04/04 04:38:37;;;;;;;0.90;0.90;;;0.40;73.70;;;;;;4916293;29;20967;-72
2022/04/04 04:41:05;;;;;;;1.20;1.10;;;0.40;73.50;;;;;;4916399;29;20548;-71
2022/04/04 04:43:32;;;;;;;1.30;1.20;;;0.40;73.40;;;;;;4916274;29;20876;-71
2022/04/04 04:46:00;;;;;;;1.30;1.20;;;0.30;73.90;;;;;;4916507;29;20543;-71
2022/04/04 04:48:27;;;;;;;1.10;1.10;;;0.20;74.10;;;;;;4916558;29;20448;-70
2022/04/04 04:50:54;;;;;;;1.30;1.20;;;0.10;74.30;;;;;;4916501;29;20476;-71
2022/04/04 04:53:20;;;;;;;1.17;1.17;;;0.10;74.50;;;;;;4916119;29;20491;-71
2022/04/04 04:55:47;;;;;;;1.30;1.20;;;0.00;74.80;;;;;;4916495;29;20456;-72
2022/04/04 04:58:14;;;;;;;1.10;1.10;;;0.00;74.80;;;;;;4916530;29;20520;-72
2022/04/04 05:00:41;;;;;;;1.70;1.60;;;0.00;74.70;;;;;;4916198;29;20456;-72
2022/04/04 05:03:27;;;;;;;1.50;1.40;;;0.00;74.90;;;;;;4916550;29;20848;-71
2022/04/04 05:05:55;;;;;;;1.70;1.60;;;0.00;75.00;;;;;;4916283;29;20815;-72
2022/04/04 05:08:21;;;;;;;1.47;1.37;;;-0.10;75.30;;;;;;4916352;29;20455;-72
2022/04/04 05:10:48;;;;;;;1.60;1.50;;;0.00;75.10;;;;;;4916186;29;20897;-71
2022/04/04 05:13:15;;;;;;;1.57;1.47;;;-0.10;75.10;;;;;;4916213;29;20484;-72
2022/04/04 05:15:42;;;;;;;1.40;1.30;;;-0.10;74.80;;;;;;4916346;29;20508;-71
2022/04/04 05:18:10;;;;;;;1.40;1.30;;;-0.20;75.10;;;;;;4916512;29;20459;-71
2022/04/04 05:20:36;;;;;;;1.07;1.00;;;-0.50;75.50;;;;;;4916068;29;20493;-71
2022/04/04 05:23:03;;;;;;;1.30;1.30;;;-0.50;76.00;;;;;;4916052;29;20444;-71
2022/04/04 05:25:30;;;;;;;1.20;1.20;;;-0.40;75.60;;;;;;4916122;29;20457;-71
2022/04/04 05:27:57;;;;;;;1.10;1.10;;;-0.40;75.70;;;;;;4916054;29;20456;-71
2022/04/04 05:30:24;;;;;;;1.17;1.17;;;-0.40;75.20;;;;;;4915867;29;20535;-72
2022/04/04 05:32:51;;;;;;;1.50;1.40;;;-0.30;75.30;;;;;;4915955;29;20507;-71
2022/04/04 05:35:19;;;;;;;1.57;1.47;;;-0.50;74.90;;;;;;4916076;29;20459;-71
2022/04/04 05:37:47;;;;;;;1.20;1.20;;;-0.80;76.10;;;;;;4916075;29;20457;-71
2022/04/04 05:40:14;;;;;;;1.20;1.20;;;-0.70;76.30;;;;;;4917041;29;20543;-71
2022/04/04 05:42:40;;;;;;;1.40;1.30;;;-0.70;76.70;;;;;;4919410;29;20499;-71
2022/04/04 05:45:09;;;;;;;1.23;1.17;;;-0.70;76.30;;;;;;4919360;29;20479;-71
2022/04/04 05:47:35;;;;;;;1.17;1.17;;;-0.50;76.10;;;;;;4919291;29;20452;-71
2022/04/04 05:50:02;;;;;;;1.07;1.03;;;-0.30;75.60;;;;;;4919334;29;20504;-71
2022/04/04 05:52:30;;;;;;;1.37;1.33;;;-0.20;75.50;;;;;;4919143;29;20476;-72
2022/04/04 05:54:58;;;;;;;1.10;1.10;;;-0.30;75.40;;;;;;4919269;29;20448;-71
2022/04/04 05:57:26;;;;;;;1.10;1.10;;;0.20;75.40;;;;;;4919027;29;20513;-71
2022/04/04 05:59:54;;;;;;;0.97;0.97;;;0.80;73.70;;;;;;4918695;29;20964;-71
2022/04/04 06:02:21;;;;;;;1.37;1.27;;;1.60;70.70;;;;;;4919217;29;20999;-71
2022/04/04 06:04:48;;;;;;;0.90;0.90;;;2.20;68.30;;;;;;4918866;29;20444;-70
2022/04/04 06:07:14;;;;;;;1.00;1.00;;;3.20;66.70;;;;;;4919080;29;20448;-71
2022/04/04 06:09:42;;;;;;;1.00;1.00;;;4.00;63.20;;;;;;4919021;29;20507;-71
2022/04/04 06:12:09;;;;;;;0.90;0.90;;;4.40;60.60;;;;;;4919644;29;20531;-71
2022/04/04 06:14:36;;;;;;;1.10;1.10;;;5.10;59.90;;;;;;4918953;29;20559;-72
2022/04/04 06:17:03;;;;;;;0.90;0.90;;;5.60;58.20;;;;;;4918646;29;20456;-71
2022/04/04 06:19:30;;;;;;;1.00;1.00;;;6.10;57.00;;;;;;4919129;29;20452;-72
2022/04/04 06:21:57;;;;;;;1.00;1.00;;;6.80;55.40;;;;;;4918927;29;20546;-72
2022/04/04 06:24:23;;;;;;;0.80;0.80;;;7.30;55.10;;;;;;4918892;29;20445;-72
2022/04/04 06:26:51;;;;;;;0.97;0.97;;;8.20;52.20;;;;;;4918519;29;20460;-72
2022/04/04 06:29:18;;;;;;;0.90;0.90;;;8.00;51.80;;;;;;4918408;29;20828;-72
2022/04/04 06:31:46;;;;;;;1.00;1.00;;;7.60;52.30;;;;;;4918266;29;20473;-72
2022/04/04 06:34:13;;;;;;;1.00;1.00;;;8.30;51.80;;;;;;4918580;29;20845;-72
2022/04/04 06:36:40;;;;;;;0.80;0.80;;;9.20;49.50;;;;;;4918915;29;20457;-72
2022/04/04 06:39:07;;;;;;;0.83;0.83;;;9.70;47.90;;;;;;4918883;29;20547;-72
2022/04/04 06:41:36;;;;;;;0.90;0.90;;;8.70;49.70;;;;;;4918473;29;20519;-72
2022/04/04 06:44:04;;;;;;;0.83;0.83;;;8.60;49.80;;;;;;4918313;29;20453;-72
2022/04/04 06:46:31;;;;;;;0.73;0.73;;;9.20;50.00;;;;;;4918159;29;20457;-72
2022/04/04 06:48:58;;;;;;;0.80;0.80;;;10.00;48.70;;;;;;4918127;29;20907;-72
2022/04/04 06:51:25;;;;;;;0.77;0.77;;;10.60;46.10;;;;;;4917962;29;20469;-72
2022/04/04 06:53:52;;;;;;;0.80;0.80;;;10.60;46.00;;;;;;4918262;29;20851;-71
2022/04/04 06:56:18;;;;;;;0.90;0.90;;;10.90;46.20;;;;;;4918116;29;20456;-71
2022/04/04 06:58:45;;;;;;;1.10;1.10;;;10.90;46.30;;;;;;4918294;29;20448;-72
2022/04/04 07:01:13;;;;;;;0.90;0.90;;;11.70;45.90;;;;;;4917932;29;20520;-71
2022/04/04 07:03:40;;;;;;;0.90;0.90;;;12.40;42.90;;;;;;4918047;29;20441;-72
2022/04/04 07:06:08;;;;;;;1.47;1.00;;;12.70;43.00;;;;;;4918106;29;20588;-71
2022/04/04 07:08:35;;;;;;;0.90;0.90;;;12.90;43.00;;;;;;4918267;29;20828;-72
2022/04/04 07:11:03;;;;;;;1.03;1.03;;;13.00;43.30;;;;;;4919494;29;20956;-73
2022/04/04 07:13:31;;;;;;;0.93;0.93;;;11.50;43.50;;;;;;4919202;29;20579;-71
2022/04/04 07:15:58;;;;;;;0.80;0.80;;;9.90;46.70;;;;;;4919494;29;20524;-72
2022/04/04 07:18:26;;;;;;;0.90;0.90;;;8.60;49.90;;;;;;4919623;29;20448;-72
2022/04/04 07:20:53;;;;;;;0.90;0.90;;;8.40;51.70;;;;;;4919273;29;20468;-72
2022/04/04 07:23:19;;;;;;;0.80;0.80;;;7.90;52.10;;;;;;4919263;29;20450;-71
2022/04/04 07:25:47;;;;;;;0.80;0.80;;;7.60;52.60;;;;;;4919365;29;20457;-70
2022/04/04 07:28:14;;;;;;;0.80;0.80;;;7.40;53.60;;;;;;4920325;29;20463;-70
2022/04/04 07:30:43;;;;;;;0.70;0.70;;;7.50;55.20;;;;;;4919548;29;20467;-72
2022/04/04 07:33:15;;;;;;;0.80;0.80;;;7.60;55.10;;;;;;4919491;29;20453;-69
2022/04/04 07:35:43;;;;;;;0.73;0.73;;;7.50;54.10;;;;;;4919980;29;20950;-71
2022/04/04 07:38:11;;;;;;;0.90;0.90;;;7.10;54.40;;;;;;4918678;29;20452;-70
2022/04/04 07:40:39;;;;;;;0.80;0.80;;;6.90;55.20;;;;;;4918984;29;20540;-70
2022/04/04 07:43:05;;;;;;;1.23;0.87;;;6.50;56.80;;;;;;4919059;29;20445;-72
2022/04/04 07:45:32;;;;;;;0.90;0.90;;;6.50;56.40;;;;;;4918899;29;20463;-71
2022/04/04 07:47:59;;;;;;;0.83;0.83;;;6.60;57.80;;;;;;4918475;29;20448;-71
2022/04/04 07:50:26;;;;;;;0.70;0.70;;;6.70;58.60;;;;;;4918761;29;20459;-71
2022/04/04 07:52:55;;;;;;;0.90;0.80;;;6.70;57.30;;;;;;4919099;29;20483;-72
2022/04/04 07:55:21;;;;;;;0.90;0.90;;;6.80;57.80;;;;;;4917948;29;20488;-71
2022/04/04 07:57:48;;;;;;;0.90;0.90;;;6.80;55.90;;;;;;4917179;29;20456;-71
2022/04/04 08:00:17;;;;;;;1.97;0.90;;;6.70;57.00;;;;;;4916834;29;20921;-70
2022/04/04 08:02:45;;;;;;;0.70;0.70;;;6.80;56.40;;;;;;4916124;29;20484;-71
2022/04/04 08:05:12;;;;;;;1.13;0.80;;;7.20;56.60;;;;;;4916932;29;20452;-71
2022/04/04 08:07:40;;;;;;;0.80;0.80;;;7.20;55.60;;;;;;4916989;29;20508;-71
2022/04/04 08:10:09;;;;;;;0.80;0.80;;;6.90;54.30;;;;;;4917087;29;20547;-71
2022/04/04 08:12:35;;;;;;;0.90;0.90;;;6.50;53.80;;;;;;4916926;29;20468;-71
2022/04/04 08:15:03;;;;;;;0.80;0.80;;;6.50;57.50;;;;;;4917425;29;20527;-72
2022/04/04 08:17:30;;;;;;;0.80;0.80;;;6.30;56.40;;;;;;4917152;29;20828;-71
2022/04/04 08:19:57;;;;;;;0.80;0.80;;;6.50;55.70;;;;;;4917058;29;20504;-72
2022/04/04 08:22:24;;;;;;;0.80;0.80;;;6.50;53.90;;;;;;4916996;29;20484;-71
2022/04/04 08:24:51;;;;;;;0.90;0.90;;;6.40;56.30;;;;;;4917173;29;20501;-71
2022/04/04 08:27:19;;;;;;;0.87;0.87;;;6.60;55.60;;;;;;4917005;29;20453;-71
2022/04/04 08:29:45;;;;;;;0.70;0.70;;;6.60;55.20;;;;;;4917020;29;20453;-72
2022/04/04 08:32:12;;;;;;;0.70;0.70;;;6.60;56.50;;;;;;4916878;29;20544;-71
2022/04/04 08:34:39;;;;;;;1.20;0.90;;;6.70;55.60;;;;;;4917065;29;20491;-71
2022/04/04 08:37:05;;;;;;;0.90;0.90;;;6.60;57.00;;;;;;4916901;29;20508;-72
2022/04/04 08:39:32;;;;;;;0.83;0.83;;;6.50;57.40;;;;;;4916813;29;20536;-71
2022/04/04 08:41:59;;;;;;;0.80;0.80;;;6.40;57.30;;;;;;4917076;29;20468;-71
2022/04/04 08:44:28;;;;;;;0.90;0.90;;;6.30;56.90;;;;;;4917297;29;20456;-71
2022/04/04 08:46:55;;;;;;;0.80;0.80;;;6.30;57.20;;;;;;4916851;29;20528;-72
2022/04/04 08:49:22;;;;;;;0.83;0.83;;;6.10;58.90;;;;;;4916851;29;20508;-70
2022/04/04 08:51:49;;;;;;;0.90;0.90;;;6.20;56.60;;;;;;4916947;29;20498;-71
2022/04/04 08:54:15;;;;;;;0.97;0.97;;;6.30;56.50;;;;;;4916639;29;20984;-70
2022/04/04 08:56:44;;;;;;;1.03;1.00;;;6.00;56.50;;;;;;4916574;29;20949;-71
2022/04/04 08:59:10;;;;;;;0.90;0.90;;;5.90;58.50;;;;;;4916870;29;20524;-71
2022/04/04 09:01:38;;;;;;;0.87;0.87;;;6.10;58.90;;;;;;4918306;29;20973;-73
2022/04/04 09:04:18;;;;;;;0.80;0.80;;;6.30;57.60;;;;;;4918304;29;20456;-72
2022/04/04 09:06:49;;;;;;;0.90;0.90;;;6.30;58.20;;;;;;4916568;29;20824;-72
2022/04/04 09:09:19;;;;;;;0.80;0.80;;;6.20;56.80;;;;;;4916583;29;20544;-72
2022/04/04 09:11:53;;;;;;;0.97;0.97;;;6.40;58.90;;;;;;4916343;29;20476;-72
2022/04/04 09:14:23;;;;;;;0.90;0.90;;;6.40;54.80;;;;;;5049199;23;20498;-74
2022/04/04 09:16:56;;;;;;;1.00;1.00;;;6.20;55.90;;;;;;4957920;28;20881;-74
2022/04/04 09:19:29;;;;;;;0.90;0.90;;;6.20;53.40;;;;;;4957689;28;20446;-73
2022/04/04 09:21:57;;;;;;;1.10;0.90;;;6.30;52.60;;;;;;4957149;28;20806;-73
2022/04/04 09:24:44;;;;;;;0.77;0.77;;;6.10;54.20;;;;;;4957332;28;20538;-74
2022/04/04 09:27:12;;;;;;;0.80;0.80;;;5.90;55.20;;;;;;4957272;28;20804;-73
2022/04/04 09:29:42;;;;;;;0.80;0.80;;;6.20;55.40;;;;;;4956997;28;20893;-73
2022/04/04 09:32:14;;;;;;;0.97;0.97;;;6.20;52.30;;;;;;4957288;28;20513;-73
2022/04/04 09:35:08;;;;;;;0.70;0.70;;;6.10;53.40;;;;;;4957100;28;20517;-73
2022/04/04 09:37:36;;;;;;;0.80;0.80;;;6.00;55.40;;;;;;4955226;28;20985;-73
2022/04/04 09:40:08;;;;;;;0.80;0.80;;;6.00;53.50;;;;;;4957115;28;20435;-73
2022/04/04 09:42:35;;;;;;;0.73;0.73;;;6.10;55.70;;;;;;4956867;28;20899;-73
2022/04/04 09:45:04;;;;;;;0.80;0.80;;;5.70;53.90;;;;;;4957106;28;20473;-73
2022/04/04 09:47:49;;;;;;;0.70;0.70;;;5.50;55.30;;;;;;4957190;28;20450;-72
2022/04/04 09:50:34;;;;;;;1.00;1.00;;;5.70;55.50;;;;;;4957878;29;20474;-73
2022/04/04 09:53:02;;;;;;;0.80;0.80;;;5.60;52.70;;;;;;4958207;28;20526;-74
2022/04/04 09:55:30;;;;;;;0.70;0.70;;;5.60;57.60;;;;;;4958001;28;20493;-74
2022/04/04 09:57:59;;;;;;;0.83;0.83;;;5.60;57.50;;;;;;4956953;28;20447;-73
2022/04/04 10:00:26;;;;;;;0.80;0.80;;;5.80;56.30;;;;;;4956585;28;20576;-73
2022/04/04 10:02:56;;;;;;;0.80;0.80;;;6.00;56.60;;;;;;4956820;28;20549;-73
2022/04/04 10:05:26;;;;;;;0.90;0.90;;;5.90;55.30;;;;;;4956377;28;20914;-73
2022/04/04 10:07:56;;;;;;;0.90;0.90;;;5.90;56.50;;;;;;4956713;28;20455;-73
2022/04/04 10:10:26;;;;;;;0.80;0.80;;;6.30;57.40;;;;;;4956691;28;20518;-73
2022/04/04 10:12:53;;;;;;;0.80;0.80;;;6.40;57.30;;;;;;4956555;28;20452;-73
2022/04/04 10:15:21;;;;;;;0.90;0.90;;;6.50;58.00;;;;;;4922915;28;1021094;-73
2022/04/04 10:17:49;;;;;;;0.73;0.73;;;6.80;57.30;;;;;;4958598;28;20203;-73
2022/04/04 10:20:17;;;;;;;0.90;0.90;;;7.00;54.80;;;;;;4958428;28;20835;-73
2022/04/04 10:22:46;;;;;;;0.80;0.80;;;6.70;54.20;;;;;;4958008;29;20451;-73
2022/04/04 10:25:14;;;;;;;0.90;0.90;;;6.60;54.90;;;;;;4957861;28;20481;-73
2022/04/04 10:27:45;;;;;;;0.97;0.97;;;6.50;54.60;;;;;;4957557;28;20459;-73
2022/04/04 10:30:12;;;;;;;0.87;0.87;;;6.80;55.90;;;;;;4958051;28;20469;-73
2022/04/04 10:32:49;;;;;;;0.97;0.97;;;6.80;53.70;;;;;;4957602;28;20459;-73
2022/04/04 10:35:21;;;;;;;1.00;1.00;;;6.90;54.50;;;;;;4958331;28;20493;-73
2022/04/04 10:37:48;;;;;;;0.97;0.83;;;6.80;54.00;;;;;;4958713;28;20446;-73
2022/04/04 10:40:24;;;;;;;0.77;0.77;;;7.10;54.90;;;;;;4958560;28;20439;-73
2022/04/04 10:43:18;;;;;;;0.80;0.80;;;7.40;53.20;;;;;;4958492;28;20465;-75
2022/04/04 10:45:56;;;;;;;0.90;0.90;;;7.20;54.30;;;;;;4924649;28;20451;-74
2022/04/04 10:48:31;;;;;;;0.80;0.80;;;7.30;55.50;;;;;;4959158;28;20415;-73
2022/04/04 10:51:17;;;;;;;0.80;0.80;;;7.50;52.80;;;;;;4959018;29;20443;-73
2022/04/04 10:53:47;;;;;;;0.80;0.80;;;7.90;50.50;;;;;;4957924;28;20994;-73
2022/04/04 10:56:18;;;;;;;0.73;0.73;;;8.00;52.10;;;;;;4957835;28;20841;-73
2022/04/04 10:58:46;;;;;;;0.87;0.87;;;8.30;51.20;;;;;;4958376;28;20486;-73
2022/04/04 11:01:16;;;;;;;0.80;0.80;;;8.10;49.70;;;;;;4957816;28;20533;-73
2022/04/04 11:03:58;;;;;;;0.80;0.80;;;8.30;52.30;;;;;;4957366;28;20574;-72
2022/04/04 11:09:34;;;;;;;0.70;0.70;;;8.20;48.60;;;;;;4956848;29;20406;-73
2022/04/04 11:12:13;;;;;;;0.83;0.83;;;8.00;50.60;;;;;;4957407;28;20435;-72
2022/04/04 11:14:57;;;;;;;0.80;0.80;;;8.30;52.40;;;;;;4957059;28;20497;-74
2022/04/04 11:17:33;;;;;;;0.70;0.70;;;8.30;54.30;;;;;;4958104;28;20550;-72
2022/04/04 11:20:04;;;;;;;0.97;0.87;;;7.70;54.40;;;;;;4959039;28;20443;-72
2022/04/04 11:22:34;;;;;;;0.90;0.90;;;7.90;54.10;;;;;;4957512;28;20478;-72
2022/04/04 11:25:04;;;;;;;0.80;0.80;;;8.10;52.00;;;;;;4957065;28;20471;-72
2022/04/04 11:27:33;;;;;;;0.70;0.70;;;8.00;54.50;;;;;;4957266;28;20502;-72
2022/04/04 11:30:00;;;;;;;1.10;0.70;;;7.80;50.70;;;;;;4958178;28;20455;-72
2022/04/04 11:32:31;;;;;;;0.70;0.70;;;7.80;52.90;;;;;;4957039;28;20895;-72
2022/04/04 11:35:01;;;;;;;0.70;0.70;;;7.80;51.60;;;;;;4957834;28;20569;-73
2022/04/04 11:37:29;;;;;;;0.90;0.90;;;7.70;52.40;;;;;;4956218;28;20431;-73
2022/04/04 11:40:06;;;;;;;0.73;0.73;;;7.90;55.30;;;;;;4956252;28;20822;-73
2022/04/04 11:42:39;;;;;;;0.70;0.70;;;8.00;51.50;;;;;;4956269;28;20542;-73
2022/04/04 11:45:08;;;;;;;0.70;0.70;;;8.50;52.20;;;;;;4956002;28;20471;-72
2022/04/04 11:47:39;;;;;;;0.80;0.77;;;9.00;51.40;;;;;;4956060;28;20461;-73
2022/04/04 11:50:06;;;;;;;0.70;0.70;;;9.20;50.20;;;;;;4955773;28;20866;-73
2022/04/04 11:52:45;;;;;;;0.80;0.80;;;9.30;52.70;;;;;;4956052;28;20458;-73
2022/04/04 11:55:17;;;;;;;0.70;0.70;;;9.20;52.80;;;;;;4955830;28;20496;-73
2022/04/04 11:57:46;;;;;;;0.90;0.90;;;9.10;50.60;;;;;;4955616;28;20911;-73
2022/04/04 12:00:15;;;;;;;0.70;0.70;;;9.10;51.70;;;;;;4955977;28;20458;-72
2022/04/04 12:02:43;;;;;;;0.90;0.80;;;8.80;51.10;;;;;;4955915;28;20823;-73
2022/04/04 12:05:12;;;;;;;0.70;0.63;;;8.30;51.50;;;;;;4955681;28;20563;-72
2022/04/04 12:07:39;;;;;;;0.70;0.70;;;8.50;51.00;;;;;;4955509;28;21009;-72
2022/04/04 12:10:06;;;;;;;1.00;0.70;;;8.20;52.80;;;;;;4955821;28;20490;-73
2022/04/04 12:12:34;;;;;;;0.80;0.80;;;8.30;53.60;;;;;;4955518;28;20455;-73
2022/04/04 12:15:01;;;;;;;0.70;0.70;;;8.30;51.40;;;;;;4955590;28;20503;-73
2022/04/04 12:17:28;;;;;;;0.70;0.70;;;8.40;52.00;;;;;;4955801;28;20482;-73
2022/04/04 12:19:54;;;;;;;0.73;0.73;;;8.30;52.60;;;;;;4956473;28;20455;-73
2022/04/04 12:25:12;;;;;;;0.80;0.80;;;8.60;51.80;;;;;;4955265;28;20455;-72
2022/04/04 12:27:55;;;;;;;0.90;0.80;;;8.80;52.40;;;;;;4955640;28;20435;-72
2022/04/04 12:30:30;;;;;;;0.70;0.70;;;9.10;54.70;;;;;;4955646;28;20920;-73
2022/04/04 12:33:07;;;;;;;0.70;0.70;;;9.10;52.10;;;;;;4955690;28;20851;-74
2022/04/04 12:35:40;;;;;;;0.80;0.80;;;9.10;52.30;;;;;;4955727;28;20470;-74
2022/04/04 12:38:07;;;;;;;0.80;0.80;;;9.20;53.60;;;;;;4955733;28;20446;-73
2022/04/04 12:40:34;;;;;;;0.77;0.77;;;9.00;50.90;;;;;;4955315;28;20546;-73
2022/04/04 12:43:07;;;;;;;0.80;0.80;;;8.70;53.40;;;;;;4955195;28;20950;-73
2022/04/04 12:45:35;;;;;;;0.80;0.80;;;8.90;52.10;;;;;;4955335;28;20432;-73
2022/04/04 12:48:07;;;;;;;0.80;0.80;;;8.80;51.60;;;;;;4955406;28;20447;-73
2022/04/04 12:50:38;;;;;;;0.90;0.90;;;8.70;53.00;;;;;;4959313;28;20513;-72
2022/04/04 12:53:07;;;;;;;0.90;0.90;;;8.60;52.80;;;;;;4959363;28;20482;-72
2022/04/04 12:55:35;;;;;;;0.80;0.80;;;8.50;51.60;;;;;;4959216;28;20905;-73
2022/04/04 12:58:22;;;;;;;0.80;0.80;;;8.80;52.10;;;;;;4959084;28;20491;-73
2022/04/04 13:00:49;;;;;;;1.57;0.77;;;9.10;53.70;;;;;;4959020;28;20439;-71
2022/04/04 13:03:24;;;;;;;0.93;0.87;;;9.20;51.30;;;;;;4958528;28;20465;-74
2022/04/04 13:05:53;;;;;;;0.80;0.80;;;9.00;51.00;;;;;;4959051;28;20426;-73
2022/04/04 13:08:22;;;;;;;0.83;0.83;;;8.60;52.10;;;;;;4958549;28;20455;-73
2022/04/04 13:11:05;;;;;;;0.80;0.80;;;8.70;51.50;;;;;;4958833;28;20874;-73
2022/04/04 13:13:34;;;;;;;0.90;0.90;;;9.10;53.00;;;;;;4958889;28;20474;-74
2022/04/04 13:16:02;;;;;;;0.80;0.80;;;9.50;52.10;;;;;;4958864;28;20466;-72
2022/04/04 13:18:29;;;;;;;0.80;0.80;;;9.40;50.40;;;;;;4958756;28;20507;-74
2022/04/04 13:20:55;;;;;;;0.80;0.80;;;9.30;50.50;;;;;;4958708;28;20470;-73
2022/04/04 13:23:22;;;;;;;0.90;0.90;;;9.10;50.50;;;;;;4958651;28;20455;-73
2022/04/04 13:25:51;;;;;;;0.70;0.70;;;8.90;52.30;;;;;;4958592;28;20442;-73
2022/04/04 13:28:18;;;;;;;0.80;0.80;;;9.20;50.10;;;;;;4958532;28;20545;-73
2022/04/04 13:30:46;;;;;;;0.80;0.80;;;9.20;50.80;;;;;;4958581;28;20451;-73
2022/04/04 13:33:12;;;;;;;1.00;0.80;;;9.50;51.60;;;;;;4958502;28;20454;-72
2022/04/04 13:35:39;;;;;;;0.80;0.80;;;9.80;49.60;;;;;;4958103;28;20998;-73
2022/04/04 13:38:06;;;;;;;0.70;0.70;;;10.20;52.10;;;;;;4958478;28;20498;-73
2022/04/04 13:40:32;;;;;;;0.97;0.70;;;10.30;49.00;;;;;;4958140;28;20509;-73
2022/04/04 13:42:59;;;;;;;0.90;0.90;;;10.60;49.00;;;;;;4958573;28;20455;-73
2022/04/04 13:45:26;;;;;;;0.70;0.70;;;10.50;48.30;;;;;;4958446;28;20462;-73
2022/04/04 13:47:54;;;;;;;0.73;0.73;;;10.90;47.80;;;;;;4958172;28;20874;-74
2022/04/04 13:50:20;;;;;;;0.70;0.70;;;11.00;49.80;;;;;;4958385;28;20451;-74
2022/04/04 13:52:47;;;;;;;0.70;0.70;;;11.10;46.90;;;;;;4958315;28;20542;-74
2022/04/04 13:55:15;;;;;;;0.80;0.80;;;10.90;46.40;;;;;;4958041;28;20592;-74
2022/04/04 13:57:41;;;;;;;0.73;0.73;;;10.70;47.10;;;;;;4957893;28;20942;-73
2022/04/04 14:00:09;;;;;;;0.80;0.80;;;10.70;48.30;;;;;;4957590;28;20826;-75
2022/04/04 14:02:40;;;;;;;0.77;0.77;;;11.00;48.20;;;;;;4957518;28;20455;-74
2022/04/04 14:05:11;;;;;;;0.80;0.80;;;11.00;47.00;;;;;;4958117;28;20526;-74
2022/04/04 14:07:38;;;;;;;0.70;0.70;;;11.20;46.40;;;;;;4957991;28;20463;-73
2022/04/04 14:10:05;;;;;;;0.80;0.80;;;11.20;47.40;;;;;;4957811;28;20455;-74
2022/04/04 14:12:35;;;;;;;1.10;1.10;;;10.60;46.40;;;;;;4957575;28;20870;-74
2022/04/04 14:15:03;;;;;;;0.90;0.90;;;10.30;47.90;;;;;;4957361;28;20581;-74
2022/04/04 14:17:29;;;;;;;0.80;0.80;;;9.90;47.80;;;;;;4957666;28;20538;-74
2022/04/04 14:19:56;;;;;;;0.90;0.90;;;10.10;49.10;;;;;;4957713;28;20442;-75
2022/04/04 14:22:24;;;;;;;0.80;0.80;;;10.00;48.80;;;;;;4957620;28;20504;-74
2022/04/04 14:24:54;;;;;;;0.77;0.77;;;10.40;49.60;;;;;;4957214;28;20893;-74
2022/04/04 14:27:21;;;;;;;0.90;0.90;;;10.90;48.20;;;;;;4957553;28;20432;-74
2022/04/04 14:29:49;;;;;;;0.90;0.90;;;11.10;48.20;;;;;;4957476;28;20451;-74
2022/04/04 14:32:16;;;;;;;0.80;0.80;;;11.20;46.40;;;;;;4957331;28;20955;-74
2022/04/04 14:34:43;;;;;;;1.00;1.00;;;11.00;48.90;;;;;;4957409;28;20475;-74
2022/04/04 14:37:09;;;;;;;0.90;0.90;;;11.30;48.20;;;;;;4957397;28;20553;-73
2022/04/04 14:39:38;;;;;;;0.90;0.90;;;11.40;46.40;;;;;;4957913;28;20495;-73
2022/04/04 14:42:06;;;;;;;0.80;0.80;;;11.20;46.60;;;;;;4957144;28;20451;-73
2022/04/04 14:44:32;;;;;;;0.90;0.90;;;11.20;45.70;;;;;;4957851;28;20896;-73
2022/04/04 14:46:59;;;;;;;0.70;0.70;;;11.40;45.90;;;;;;4964396;28;20867;-73
2022/04/04 14:49:26;;;;;;;0.77;0.77;;;11.70;47.70;;;;;;4971312;28;20447;-74
2022/04/04 14:51:52;;;;;;;0.90;0.90;;;11.20;45.90;;;;;;4980669;28;20478;-74
2022/04/04 14:54:19;;;;;;;0.80;0.80;;;10.70;48.90;;;;;;4970223;28;20471;-74
2022/04/04 14:56:48;;;;;;;0.80;0.80;;;10.50;48.00;;;;;;4959257;28;20534;-74
2022/04/04 14:59:15;;;;;;;0.77;0.77;;;10.60;47.90;;;;;;4958204;28;20883;-74
2022/04/04 15:01:42;;;;;;;0.70;0.70;;;10.80;47.90;;;;;;4957032;28;20541;-74
2022/04/04 15:04:09;;;;;;;0.80;0.80;;;10.70;48.00;;;;;;4957180;28;20525;-74
2022/04/04 15:06:36;;;;;;;0.77;0.77;;;10.30;46.70;;;;;;4956920;28;20451;-74
2022/04/04 15:09:05;;;;;;;1.10;1.10;;;10.80;47.50;;;;;;4956622;28;20920;-73
2022/04/04 15:11:32;;;;;;;0.83;0.83;;;11.20;47.10;;;;;;4956528;28;20466;-75
2022/04/04 15:14:00;;;;;;;0.77;0.77;;;11.10;47.00;;;;;;5051936;23;20472;-71
2022/04/04 15:16:27;;;;;;;1.10;0.80;;;10.90;47.60;;;;;;4956670;28;20486;-73
2022/04/04 15:18:54;;;;;;;0.80;0.80;;;10.60;48.10;;;;;;4956735;28;20451;-73
2022/04/04 15:21:21;;;;;;;0.93;0.90;;;10.60;48.10;;;;;;4956617;28;20498;-72
2022/04/04 15:23:49;;;;;;;0.90;0.73;;;10.40;49.20;;;;;;4956192;28;20505;-73
2022/04/04 15:26:18;;;;;;;0.80;0.80;;;10.10;48.60;;;;;;4956461;28;20450;-72
2022/04/04 15:28:46;;;;;;;0.80;0.80;;;10.10;48.90;;;;;;4956588;28;20534;-72
2022/04/04 15:31:14;;;;;;;0.80;0.80;;;9.70;49.20;;;;;;4956599;28;20459;-72
2022/04/04 15:33:41;;;;;;;0.80;0.80;;;9.30;50.40;;;;;;4956588;28;20502;-72
2022/04/04 15:36:15;;;;;;;0.97;0.97;;;9.20;51.70;;;;;;4956153;28;20475;-71
2022/04/04 15:38:42;;;;;;;0.80;0.80;;;9.40;51.70;;;;;;4956133;28;20494;-72
2022/04/04 15:41:09;;;;;;;0.70;0.70;;;9.60;50.80;;;;;;4955652;28;20453;-72
2022/04/04 15:43:38;;;;;;;1.20;1.10;;;9.50;50.20;;;;;;4955517;28;20463;-73
2022/04/04 15:46:05;;;;;;;0.80;0.80;;;9.20;51.20;;;;;;4955969;28;20489;-73
2022/04/04 15:48:33;;;;;;;0.73;0.73;;;9.20;52.70;;;;;;4955755;28;20454;-72
2022/04/04 15:50:59;;;;;;;0.90;0.90;;;9.30;51.40;;;;;;4955422;28;20454;-73
2022/04/04 15:53:26;;;;;;;0.70;0.70;;;9.50;53.20;;;;;;4955451;28;20455;-73
2022/04/04 15:55:53;;;;;;;0.90;0.90;;;9.50;51.80;;;;;;4955235;28;20525;-73
2022/04/04 15:58:19;;;;;;;1.00;0.90;;;9.50;51.50;;;;;;4955614;28;20451;-73
2022/04/04 16:00:46;;;;;;;0.80;0.73;;;9.60;52.40;;;;;;4955291;28;20478;-73
2022/04/04 16:03:13;;;;;;;0.77;0.77;;;9.70;52.90;;;;;;4955594;28;20510;-72
2022/04/04 16:05:41;;;;;;;0.70;0.70;;;9.60;51.50;;;;;;4955389;28;20581;-73
2022/04/04 16:08:08;;;;;;;0.70;0.70;;;9.20;50.70;;;;;;4955349;28;20861;-72
2022/04/04 16:10:34;;;;;;;0.80;0.80;;;9.10;51.20;;;;;;4955655;28;20835;-72